createdAt,value
2022-10-09T00:01:09.239Z,89.79
2022-10-09T00:03:39.542Z,89.33
2022-10-09T00:06:09.530Z,90.07
2022-10-09T00:08:40.037Z,90.22
2022-10-09T00:11:09.225Z,89.84
2022-10-09T00:13:37.689Z,90.43
2022-10-09T00:16:08.562Z,90.29
2022-10-09T00:18:36.573Z,90.01
2022-10-09T00:21:05.723Z,90.92
2022-10-09T00:23:33.990Z,91.39
2022-10-09T00:26:03.531Z,92.10
2022-10-09T00:28:36.521Z,92.01
2022-10-09T00:31:07.227Z,92.18
2022-10-09T00:33:35.568Z,92.48
2022-10-09T00:36:04.625Z,93.04
2022-10-09T00:38:32.622Z,92.87
2022-10-09T00:41:00.436Z,92.79
2022-10-09T00:43:47.651Z,93.19
2022-10-09T00:46:36.179Z,92.62
2022-10-09T00:49:11.742Z,92.91
2022-10-09T00:51:40.292Z,92.52
2022-10-09T00:54:13.195Z,92.85
2022-10-09T00:56:41.364Z,92.85
2022-10-09T00:59:11.719Z,92.42
2022-10-09T01:01:41.801Z,93.06
2022-10-09T01:04:09.965Z,92.79
2022-10-09T01:06:53.899Z,92.90
2022-10-09T01:09:26.593Z,93.58
2022-10-09T01:12:01.997Z,93.48
2022-10-09T01:14:35.696Z,93.17
2022-10-09T01:17:13.376Z,93.61
2022-10-09T01:19:57.784Z,93.84
2022-10-09T01:22:44.168Z,94.41
2022-10-09T01:25:20.844Z,94.36
2022-10-09T01:27:50.445Z,94.42
2022-10-09T01:30:18.632Z,94.44
2022-10-09T01:32:51.908Z,94.26
2022-10-09T01:35:21.107Z,94.11
2022-10-09T01:37:52.071Z,93.86
2022-10-09T01:40:21.064Z,94.20
2022-10-09T01:42:50.651Z,93.70
2022-10-09T01:45:18.898Z,94.17
2022-10-09T01:47:46.745Z,94.20
2022-10-09T01:50:23.328Z,93.51
2022-10-09T01:52:54.121Z,93.49
2022-10-09T01:55:37.554Z,93.85
2022-10-09T01:58:16.220Z,94.01
2022-10-09T02:00:48.035Z,93.42
2022-10-09T02:03:18.359Z,93.17
2022-10-09T02:05:50.542Z,93.71
2022-10-09T02:08:21.005Z,93.47
2022-10-09T02:10:53.976Z,93.29
2022-10-09T02:13:24.397Z,93.32
2022-10-09T02:15:57.569Z,92.97
2022-10-09T02:18:32.606Z,93.44
2022-10-09T02:21:08.600Z,93.06
2022-10-09T02:23:39.903Z,92.79
2022-10-09T02:26:11.351Z,91.63
2022-10-09T02:28:45.706Z,91.39
2022-10-09T02:31:21.338Z,91.34
2022-10-09T02:33:56.575Z,90.97
2022-10-09T02:36:24.697Z,90.84
2022-10-09T02:38:52.845Z,90.47
2022-10-09T02:41:20.716Z,90.33
2022-10-09T02:43:50.079Z,90.18
2022-10-09T02:46:18.524Z,89.57
2022-10-09T02:48:46.582Z,89.83
2022-10-09T02:51:14.690Z,89.12
2022-10-09T02:53:42.620Z,88.82
2022-10-09T02:56:11.021Z,88.87
2022-10-09T02:58:40.055Z,89.26
2022-10-09T03:01:09.298Z,89.10
2022-10-09T03:03:37.169Z,89.61
2022-10-09T03:06:09.571Z,89.25
2022-10-09T03:08:37.607Z,89.29
2022-10-09T03:11:05.781Z,89.56
2022-10-09T03:13:34.089Z,89.78
2022-10-09T03:16:05.500Z,89.93
2022-10-09T03:18:35.332Z,89.18
2022-10-09T03:21:06.355Z,89.72
2022-10-09T03:23:34.409Z,89.99
2022-10-09T03:26:04.487Z,90.05
2022-10-09T03:28:32.456Z,89.82
2022-10-09T03:31:00.782Z,89.55
2022-10-09T03:33:28.952Z,90.11
2022-10-09T03:35:58.131Z,89.80
2022-10-09T03:38:26.189Z,89.60
2022-10-09T03:40:54.328Z,90.54
2022-10-09T03:43:22.382Z,91.13
2022-10-09T03:45:50.301Z,91.08
2022-10-09T03:48:18.560Z,91.24
2022-10-09T03:50:46.398Z,91.16
2022-10-09T03:53:16.450Z,92.06
2022-10-09T03:55:44.513Z,91.77
2022-10-09T03:58:12.384Z,91.51
2022-10-09T04:00:40.311Z,92.52
2022-10-09T04:03:08.285Z,92.55
2022-10-09T04:05:36.563Z,91.67
2022-10-09T04:08:04.379Z,91.92
2022-10-09T04:10:33.678Z,91.54
2022-10-09T04:13:01.530Z,92.23
2022-10-09T04:15:29.340Z,92.48
2022-10-09T04:17:57.192Z,93.09
2022-10-09T04:20:24.989Z,93.50
2022-10-09T04:22:52.780Z,93.41
2022-10-09T04:25:20.730Z,93.34
2022-10-09T04:27:49.966Z,93.29
2022-10-09T04:30:17.916Z,93.62
2022-10-09T04:32:48.514Z,94.18
2022-10-09T04:35:17.529Z,93.60
2022-10-09T04:37:45.412Z,93.61
2022-10-09T04:40:13.351Z,93.62
2022-10-09T04:42:41.376Z,93.58
2022-10-09T04:45:11.833Z,93.80
2022-10-09T04:47:40.783Z,94.12
2022-10-09T04:50:09.650Z,94.03
2022-10-09T04:52:37.459Z,93.92
2022-10-09T04:55:05.827Z,94.29
2022-10-09T04:57:33.652Z,95.03
2022-10-09T05:00:01.476Z,94.50
2022-10-09T05:02:32.143Z,94.17
2022-10-09T05:05:00.024Z,93.78
2022-10-09T05:07:27.831Z,93.30
2022-10-09T05:09:55.792Z,93.99
2022-10-09T05:12:23.597Z,93.61
2022-10-09T05:14:51.447Z,93.52
2022-10-09T05:17:23.022Z,93.89
2022-10-09T05:19:52.753Z,94.34
2022-10-09T05:22:20.748Z,94.49
2022-10-09T05:24:48.570Z,94.83
2022-10-09T05:27:16.430Z,94.03
2022-10-09T05:29:44.505Z,95.17
2022-10-09T05:32:12.386Z,95.13
2022-10-09T05:34:40.257Z,94.21
2022-10-09T05:37:09.758Z,94.95
2022-10-09T05:39:38.448Z,95.08
2022-10-09T05:42:07.200Z,95.07
2022-10-09T05:44:35.180Z,95.44
2022-10-09T05:47:03.586Z,96.03
2022-10-09T05:49:31.492Z,95.85
2022-10-09T05:52:00.154Z,95.58
2022-10-09T05:54:29.727Z,95.00
2022-10-09T05:56:57.640Z,95.01
2022-10-09T05:59:26.945Z,95.32
2022-10-09T06:01:54.948Z,95.08
2022-10-09T06:04:24.269Z,95.41
2022-10-09T06:06:52.872Z,95.26
2022-10-09T06:09:24.121Z,95.10
2022-10-09T06:11:55.135Z,94.88
2022-10-09T06:14:24.514Z,94.82
2022-10-09T06:16:52.964Z,94.65
2022-10-09T06:19:21.728Z,94.42
2022-10-09T06:21:50.605Z,94.41
2022-10-09T06:24:24.530Z,93.99
2022-10-09T06:26:58.099Z,94.24
2022-10-09T06:29:26.137Z,94.49
2022-10-09T06:31:54.145Z,94.51
2022-10-09T06:34:22.320Z,94.86
2022-10-09T06:36:50.400Z,94.33
2022-10-09T06:39:18.463Z,94.69
2022-10-09T06:41:46.563Z,94.27
2022-10-09T06:44:17.377Z,93.53
2022-10-09T06:46:49.429Z,93.88
2022-10-09T06:49:17.294Z,93.51
2022-10-09T06:51:45.142Z,93.71
2022-10-09T06:54:14.529Z,93.55
2022-10-09T06:56:42.383Z,93.28
2022-10-09T06:59:12.551Z,93.61
2022-10-09T07:01:42.028Z,93.47
2022-10-09T07:04:12.793Z,93.28
2022-10-09T07:06:43.169Z,93.53
2022-10-09T07:09:13.319Z,92.90
2022-10-09T07:11:43.675Z,92.02
2022-10-09T07:14:13.098Z,92.03
2022-10-09T07:16:44.272Z,91.47
2022-10-09T07:19:12.775Z,91.58
2022-10-09T07:21:42.785Z,91.83
2022-10-09T07:24:12.071Z,91.36
2022-10-09T07:26:42.027Z,91.91
2022-10-09T07:29:12.394Z,91.07
2022-10-09T07:31:40.461Z,89.94
2022-10-09T07:34:09.674Z,90.05
2022-10-09T07:36:37.749Z,89.69
2022-10-09T07:39:07.049Z,89.99
2022-10-09T07:41:35.734Z,89.44
2022-10-09T07:44:03.727Z,89.56
2022-10-09T07:46:33.994Z,88.19
2022-10-09T07:49:02.249Z,88.41
2022-10-09T07:51:32.503Z,88.36
2022-10-09T07:54:02.094Z,88.10
2022-10-09T07:56:32.479Z,88.45
2022-10-09T07:59:01.715Z,88.49
2022-10-09T08:01:30.653Z,87.97
2022-10-09T08:03:59.494Z,87.42
2022-10-09T08:06:27.564Z,87.37
2022-10-09T08:08:59.085Z,87.88
2022-10-09T08:11:28.733Z,87.02
2022-10-09T08:13:57.271Z,86.54
2022-10-09T08:16:27.032Z,86.34
2022-10-09T08:18:59.348Z,85.83
2022-10-09T08:21:28.453Z,86.47
2022-10-09T08:23:59.560Z,85.91
2022-10-09T08:26:29.875Z,86.03
2022-10-09T08:28:59.521Z,84.97
2022-10-09T08:31:28.186Z,84.59
2022-10-09T08:33:57.769Z,83.85
2022-10-09T08:36:26.700Z,83.90
2022-10-09T08:38:55.303Z,84.46
2022-10-09T08:41:38.492Z,82.86
2022-10-09T08:44:12.134Z,82.18
2022-10-09T08:46:51.222Z,82.60
2022-10-09T08:49:26.274Z,83.07
2022-10-09T08:51:57.753Z,82.03
2022-10-09T08:54:34.504Z,82.39
2022-10-09T08:57:11.048Z,82.03
2022-10-09T08:59:38.980Z,82.05
2022-10-09T09:02:26.588Z,80.95
2022-10-09T09:05:03.972Z,81.96
2022-10-09T09:07:39.071Z,81.23
2022-10-09T09:10:14.936Z,80.18
2022-10-09T09:12:51.085Z,79.31
2022-10-09T09:15:31.615Z,79.63
2022-10-09T09:18:08.427Z,79.00
2022-10-09T09:20:48.454Z,78.59
2022-10-09T09:23:17.891Z,79.03
2022-10-09T09:25:46.223Z,79.28
2022-10-09T09:28:21.493Z,79.04
2022-10-09T09:30:55.841Z,78.93
2022-10-09T09:33:35.775Z,77.41
2022-10-09T09:36:10.209Z,76.28
2022-10-09T09:38:53.713Z,76.35
2022-10-09T09:41:28.361Z,77.02
2022-10-09T09:43:57.698Z,76.43
2022-10-09T09:46:31.252Z,76.78
2022-10-09T09:48:59.558Z,76.38
2022-10-09T09:51:30.194Z,77.38
2022-10-09T09:54:00.960Z,76.39
2022-10-09T09:56:59.730Z,76.17
2022-10-09T09:59:33.438Z,76.56
2022-10-09T10:02:03.120Z,76.60
2022-10-09T10:04:31.079Z,76.06
2022-10-09T10:06:59.213Z,74.63
2022-10-09T10:09:27.153Z,74.16
2022-10-09T10:11:58.323Z,74.26
2022-10-09T10:14:28.688Z,74.79
2022-10-09T10:16:58.331Z,73.57
2022-10-09T10:19:28.625Z,72.92
2022-10-09T10:21:58.849Z,72.65
2022-10-09T10:24:31.812Z,71.21
2022-10-09T10:27:04.042Z,72.24
2022-10-09T10:29:38.382Z,71.61
2022-10-09T10:32:15.535Z,72.03
2022-10-09T10:34:50.570Z,71.79
2022-10-09T10:37:40.609Z,70.80
2022-10-09T10:40:16.101Z,71.08
2022-10-09T10:42:57.444Z,70.59
2022-10-09T10:45:35.650Z,70.51
2022-10-09T10:48:06.288Z,70.27
2022-10-09T10:50:39.771Z,68.76
2022-10-09T10:53:18.304Z,66.88
2022-10-09T10:55:55.328Z,67.34
2022-10-09T10:58:30.611Z,66.95
2022-10-09T11:01:20.459Z,67.11
2022-10-09T11:04:15.869Z,67.35
2022-10-09T11:06:54.485Z,67.52
2022-10-09T11:09:31.833Z,67.09
2022-10-09T11:12:19.330Z,65.51
2022-10-09T11:15:03.281Z,64.30
2022-10-09T11:17:41.353Z,62.46
2022-10-09T11:20:37.036Z,62.19
2022-10-09T11:23:14.258Z,62.54
2022-10-09T11:25:46.735Z,62.12
2022-10-09T11:28:19.560Z,60.89
2022-10-09T11:30:54.055Z,60.60
2022-10-09T11:33:33.480Z,59.18
2022-10-09T11:36:06.165Z,57.97
2022-10-09T11:38:38.631Z,56.85
2022-10-09T11:41:08.095Z,58.08
2022-10-09T11:43:53.550Z,58.64
2022-10-09T11:46:33.563Z,58.09
2022-10-09T11:49:10.968Z,58.82
2022-10-09T11:51:46.491Z,58.29
2022-10-09T11:54:17.612Z,58.53
2022-10-09T11:56:55.357Z,56.68
2022-10-09T11:59:26.252Z,57.11
2022-10-09T12:01:54.403Z,58.30
2022-10-09T12:04:54.027Z,57.70
2022-10-09T12:07:32.486Z,57.27
2022-10-09T12:10:06.482Z,56.91
2022-10-09T12:12:37.759Z,57.49
2022-10-09T12:15:24.786Z,56.93
2022-10-09T12:17:52.641Z,58.03
2022-10-09T12:20:25.941Z,57.52
2022-10-09T12:23:21.694Z,56.96
2022-10-09T12:25:47.172Z,56.52
2022-10-09T12:28:21.788Z,56.06
2022-10-09T12:30:51.884Z,57.94
2022-10-09T12:33:25.258Z,57.96
2022-10-09T12:36:04.276Z,56.13
2022-10-09T12:38:32.965Z,56.28
2022-10-09T12:41:03.930Z,54.58
2022-10-09T12:43:33.681Z,55.25
2022-10-09T12:46:02.232Z,54.75
2022-10-09T12:48:36.585Z,54.45
2022-10-09T12:51:16.127Z,54.18
2022-10-09T12:53:49.892Z,53.78
2022-10-09T12:56:23.892Z,53.77
2022-10-09T12:58:53.412Z,53.69
2022-10-09T13:01:22.318Z,54.25
2022-10-09T13:03:58.911Z,52.99
2022-10-09T13:06:33.835Z,52.72
2022-10-09T13:09:05.294Z,53.13
2022-10-09T13:11:38.037Z,53.40
2022-10-09T13:14:06.739Z,53.37
2022-10-09T13:16:41.983Z,53.20
2022-10-09T13:19:24.841Z,51.97
2022-10-09T13:22:21.920Z,52.77
2022-10-09T13:24:53.472Z,52.90
2022-10-09T13:27:21.947Z,52.84
2022-10-09T13:29:49.949Z,52.59
2022-10-09T13:32:19.618Z,52.42
2022-10-09T13:34:47.921Z,52.99
2022-10-09T13:37:17.836Z,52.65
2022-10-09T13:39:47.319Z,52.79
2022-10-09T13:42:17.483Z,52.14
2022-10-09T13:44:45.533Z,52.67
2022-10-09T13:47:13.540Z,51.95
2022-10-09T13:49:41.428Z,52.03
2022-10-09T13:52:09.538Z,52.34
2022-10-09T13:54:37.723Z,52.12
2022-10-09T13:57:07.095Z,51.02
2022-10-09T13:59:35.266Z,51.85
2022-10-09T14:02:03.495Z,52.69
2022-10-09T14:04:31.612Z,50.77
2022-10-09T14:06:59.430Z,51.16
2022-10-09T14:09:27.475Z,51.38
2022-10-09T14:11:55.340Z,51.37
2022-10-09T14:14:24.618Z,51.68
2022-10-09T14:16:52.564Z,51.83
2022-10-09T14:19:20.504Z,52.39
2022-10-09T14:21:48.451Z,51.73
2022-10-09T14:24:16.412Z,51.53
2022-10-09T14:26:47.334Z,51.27
2022-10-09T14:29:19.137Z,50.80
2022-10-09T14:31:50.902Z,50.61
2022-10-09T14:34:18.962Z,50.02
2022-10-09T14:36:46.883Z,50.86
2022-10-09T14:39:15.117Z,51.16
2022-10-09T14:41:43.087Z,52.06
2022-10-09T14:44:11.489Z,51.64
2022-10-09T14:46:39.431Z,52.12
2022-10-09T14:49:09.736Z,52.37
2022-10-09T14:51:39.632Z,51.98
2022-10-09T14:54:08.647Z,52.59
2022-10-09T14:56:36.975Z,53.25
2022-10-09T14:59:05.997Z,52.61
2022-10-09T15:01:34.804Z,53.20
2022-10-09T15:04:03.709Z,53.09
2022-10-09T15:06:33.958Z,53.29
2022-10-09T15:09:05.559Z,53.31
2022-10-09T15:11:35.474Z,53.55
2022-10-09T15:14:03.670Z,53.67
2022-10-09T15:16:31.745Z,53.80
2022-10-09T15:18:59.818Z,54.04
2022-10-09T15:21:30.062Z,53.82
2022-10-09T15:24:01.297Z,54.20
2022-10-09T15:26:32.818Z,54.70
2022-10-09T15:29:02.846Z,54.52
2022-10-09T15:31:32.781Z,54.32
2022-10-09T15:34:02.452Z,54.65
2022-10-09T15:36:31.392Z,54.80
2022-10-09T15:39:05.665Z,55.30
2022-10-09T15:41:35.345Z,56.00
2022-10-09T15:44:05.688Z,55.58
2022-10-09T15:46:33.605Z,56.06
2022-10-09T15:49:01.551Z,55.70
2022-10-09T15:51:30.194Z,55.95
2022-10-09T15:54:02.064Z,56.44
2022-10-09T15:56:30.743Z,56.50
2022-10-09T15:58:59.762Z,56.39
2022-10-09T16:01:27.662Z,56.48
2022-10-09T16:03:55.796Z,56.47
2022-10-09T16:06:25.496Z,57.09
2022-10-09T16:08:56.748Z,57.04
2022-10-09T16:11:26.960Z,57.46
2022-10-09T16:13:55.674Z,58.07
2022-10-09T16:16:27.636Z,57.95
2022-10-09T16:18:57.005Z,58.21
2022-10-09T16:21:27.706Z,58.82
2022-10-09T16:23:58.704Z,59.10
2022-10-09T16:26:30.627Z,59.17
2022-10-09T16:29:00.170Z,59.72
2022-10-09T16:31:30.290Z,59.85
2022-10-09T16:33:58.737Z,60.10
2022-10-09T16:36:26.998Z,60.05
2022-10-09T16:38:55.661Z,61.04
2022-10-09T16:41:24.293Z,61.41
2022-10-09T16:43:55.635Z,61.48
2022-10-09T16:46:25.667Z,61.72
2022-10-09T16:48:54.581Z,61.85
2022-10-09T16:51:24.874Z,62.12
2022-10-09T16:53:53.968Z,62.52
2022-10-09T16:56:23.790Z,62.82
2022-10-09T16:58:56.983Z,63.06
2022-10-09T17:01:25.659Z,63.31
2022-10-09T17:03:54.966Z,63.58
2022-10-09T17:06:24.232Z,63.88
2022-10-09T17:08:52.743Z,64.03
2022-10-09T17:11:21.479Z,64.35
2022-10-09T17:13:49.571Z,64.67
2022-10-09T17:16:21.059Z,64.45
2022-10-09T17:18:49.688Z,64.55
2022-10-09T17:21:19.164Z,65.06
2022-10-09T17:23:57.905Z,65.14
2022-10-09T17:26:27.479Z,65.02
2022-10-09T17:28:55.534Z,65.55
2022-10-09T17:31:26.111Z,65.69
2022-10-09T17:33:56.495Z,65.87
2022-10-09T17:36:26.207Z,66.11
2022-10-09T17:38:54.450Z,66.05
2022-10-09T17:41:24.533Z,66.04
2022-10-09T17:43:53.069Z,66.53
2022-10-09T17:46:21.605Z,66.53
2022-10-09T17:48:53.409Z,66.68
2022-10-09T17:51:23.931Z,67.24
2022-10-09T17:53:52.242Z,67.11
2022-10-09T17:56:20.279Z,67.92
2022-10-09T17:58:49.520Z,68.68
2022-10-09T18:01:18.457Z,69.37
2022-10-09T18:03:46.599Z,69.83
2022-10-09T18:06:18.154Z,69.41
2022-10-09T18:08:46.839Z,69.90
2022-10-09T18:11:17.407Z,70.22
2022-10-09T18:13:46.413Z,70.53
2022-10-09T18:16:18.029Z,71.19
2022-10-09T18:18:47.201Z,71.06
2022-10-09T18:21:17.902Z,71.31
2022-10-09T18:23:46.663Z,71.33
2022-10-09T18:26:16.212Z,71.65
2022-10-09T18:28:48.171Z,71.71
2022-10-09T18:31:21.358Z,71.72
2022-10-09T18:33:49.494Z,71.84
2022-10-09T18:36:22.798Z,71.89
2022-10-09T18:38:52.939Z,72.35
2022-10-09T18:41:22.428Z,72.19
2022-10-09T18:43:51.478Z,72.44
2022-10-09T18:46:22.066Z,72.92
2022-10-09T18:48:51.493Z,72.71
2022-10-09T18:51:24.396Z,72.94
2022-10-09T18:53:55.632Z,73.39
2022-10-09T18:56:23.717Z,73.38
2022-10-09T18:58:53.890Z,73.47
2022-10-09T19:01:22.133Z,73.43
2022-10-09T19:03:50.481Z,73.30
2022-10-09T19:06:20.312Z,73.26
2022-10-09T19:08:48.329Z,73.14
2022-10-09T19:11:16.773Z,73.35
2022-10-09T19:13:45.127Z,73.42
2022-10-09T19:16:13.015Z,73.27
2022-10-09T19:18:41.016Z,73.77
2022-10-09T19:21:13.696Z,73.48
2022-10-09T19:23:43.942Z,74.25
2022-10-09T19:26:13.677Z,74.57
2022-10-09T19:28:41.695Z,74.50
2022-10-09T19:31:11.666Z,74.53
2022-10-09T19:33:40.291Z,74.46
2022-10-09T19:36:10.835Z,74.75
2022-10-09T19:38:38.698Z,75.19
2022-10-09T19:41:11.006Z,75.24
2022-10-09T19:43:39.436Z,75.36
2022-10-09T19:46:09.710Z,75.72
2022-10-09T19:48:38.349Z,75.84
2022-10-09T19:51:07.492Z,75.84
2022-10-09T19:53:36.035Z,75.52
2022-10-09T19:56:09.554Z,75.62
2022-10-09T19:58:41.789Z,75.44
2022-10-09T20:01:11.792Z,75.54
2022-10-09T20:03:40.207Z,75.16
2022-10-09T20:06:09.665Z,74.96
2022-10-09T20:08:37.628Z,75.42
2022-10-09T20:11:06.467Z,75.32
2022-10-09T20:13:35.860Z,75.35
2022-10-09T20:16:07.799Z,75.22
2022-10-09T20:18:35.855Z,74.88
2022-10-09T20:21:03.762Z,74.81
2022-10-09T20:23:31.858Z,74.47
2022-10-09T20:26:00.958Z,75.00
2022-10-09T20:28:28.970Z,74.22
2022-10-09T20:30:57.715Z,74.67
2022-10-09T20:33:27.294Z,74.26
2022-10-09T20:35:55.168Z,74.37
2022-10-09T20:38:25.728Z,73.84
2022-10-09T20:40:54.322Z,74.09
2022-10-09T20:43:22.139Z,73.82
2022-10-09T20:45:50.088Z,73.82
2022-10-09T20:48:18.020Z,73.33
2022-10-09T20:50:47.282Z,73.75
2022-10-09T20:53:16.832Z,72.89
2022-10-09T20:55:44.663Z,73.00
2022-10-09T20:58:12.526Z,72.64
2022-10-09T21:00:43.299Z,72.74
2022-10-09T21:03:12.661Z,72.11
2022-10-09T21:05:44.933Z,72.34
2022-10-09T21:08:14.315Z,72.03
2022-10-09T21:10:47.373Z,72.08
2022-10-09T21:13:15.395Z,72.25
2022-10-09T21:15:44.235Z,72.67
2022-10-09T21:18:12.656Z,72.06
2022-10-09T21:20:41.399Z,71.65
2022-10-09T21:23:09.848Z,71.72
2022-10-09T21:25:39.958Z,71.51
2022-10-09T21:28:07.875Z,71.43
2022-10-09T21:30:41.510Z,71.52
2022-10-09T21:33:09.653Z,71.88
2022-10-09T21:35:40.558Z,71.47
2022-10-09T21:38:11.529Z,71.74
2022-10-09T21:40:40.811Z,71.93
2022-10-09T21:43:08.897Z,71.25
2022-10-09T21:45:36.949Z,71.90
2022-10-09T21:48:05.748Z,71.87
2022-10-09T21:50:34.345Z,71.46
2022-10-09T21:53:02.254Z,71.51
2022-10-09T21:55:30.118Z,71.60
2022-10-09T21:57:59.313Z,71.35
2022-10-09T22:00:27.310Z,71.47
2022-10-09T22:02:55.150Z,71.31
2022-10-09T22:05:22.969Z,71.52
2022-10-09T22:07:50.935Z,71.59
2022-10-09T22:10:18.905Z,71.65
2022-10-09T22:12:46.741Z,71.43
2022-10-09T22:15:16.073Z,71.46
2022-10-09T22:17:44.008Z,71.41
2022-10-09T22:20:13.117Z,71.54
2022-10-09T22:22:41.349Z,71.54
2022-10-09T22:25:09.901Z,72.00
2022-10-09T22:27:37.781Z,71.56
2022-10-09T22:30:06.777Z,71.79
2022-10-09T22:32:36.011Z,71.96
2022-10-09T22:35:03.970Z,72.09
2022-10-09T22:37:32.224Z,72.29
2022-10-09T22:40:00.047Z,72.56
2022-10-09T22:42:27.939Z,72.55
2022-10-09T22:44:55.925Z,73.07
2022-10-09T22:47:23.800Z,73.37
2022-10-09T22:49:53.033Z,72.96
2022-10-09T22:52:20.980Z,73.00
2022-10-09T22:54:48.820Z,73.62
2022-10-09T22:57:16.813Z,73.36
2022-10-09T22:59:44.939Z,72.96
2022-10-09T23:02:12.818Z,72.35
2022-10-09T23:04:40.606Z,73.17
2022-10-09T23:07:11.117Z,73.23
2022-10-09T23:09:45.894Z,73.03
2022-10-09T23:12:14.062Z,73.01
2022-10-09T23:14:42.034Z,72.99
2022-10-09T23:17:09.863Z,72.50
2022-10-09T23:19:38.069Z,72.90
2022-10-09T23:22:05.945Z,73.01
2022-10-09T23:24:35.140Z,72.55
2022-10-09T23:27:03.206Z,72.61
2022-10-09T23:29:31.003Z,72.70
2022-10-09T23:31:58.859Z,73.03
2022-10-09T23:34:26.907Z,73.11
2022-10-09T23:36:54.750Z,73.23
2022-10-09T23:39:22.588Z,73.08
2022-10-09T23:41:51.841Z,73.57
2022-10-09T23:44:22.132Z,73.52
2022-10-09T23:46:50.330Z,73.45
2022-10-09T23:49:18.335Z,73.66
2022-10-09T23:51:46.193Z,73.94
2022-10-09T23:54:14.299Z,73.46
2022-10-09T23:56:42.827Z,73.55
2022-10-09T23:59:13.010Z,73.55
